createdAt,value
2023-05-15T00:00:49.726Z,5.72
2023-05-15T00:03:18.328Z,6.30
2023-05-15T00:05:45.805Z,5.87
2023-05-15T00:08:13.236Z,6.03
2023-05-15T00:10:47.524Z,6.10
2023-05-15T00:13:21.742Z,5.82
2023-05-15T00:15:49.456Z,6.12
2023-05-15T00:18:16.924Z,6.18
2023-05-15T00:20:44.331Z,6.55
2023-05-15T00:23:12.006Z,6.62
2023-05-15T00:25:39.365Z,6.80
2023-05-15T00:28:06.766Z,6.87
2023-05-15T00:30:34.478Z,6.28
2023-05-15T00:33:01.907Z,6.53
2023-05-15T00:35:29.318Z,6.47
2023-05-15T00:37:58.004Z,6.93
2023-05-15T00:40:26.081Z,6.90
2023-05-15T00:42:53.657Z,7.15
2023-05-15T00:45:22.064Z,7.28
2023-05-15T00:47:49.729Z,6.78
2023-05-15T00:50:18.986Z,7.22
2023-05-15T00:52:46.684Z,7.65
2023-05-15T00:55:14.468Z,6.70
2023-05-15T00:57:43.836Z,6.90
2023-05-15T01:00:12.606Z,7.65
2023-05-15T01:02:40.178Z,7.45
2023-05-15T01:05:09.014Z,7.78
2023-05-15T01:07:51.118Z,7.75
2023-05-15T01:10:19.863Z,8.27
2023-05-15T01:12:47.713Z,7.75
2023-05-15T01:15:15.126Z,8.15
2023-05-15T01:17:42.634Z,7.95
2023-05-15T01:20:11.694Z,8.35
2023-05-15T01:22:45.126Z,8.55
2023-05-15T01:25:23.458Z,8.98
2023-05-15T01:27:52.806Z,8.95
2023-05-15T01:30:32.870Z,9.05
2023-05-15T01:33:03.997Z,10.00
2023-05-15T01:35:45.366Z,9.48
2023-05-15T01:38:24.320Z,9.18
2023-05-15T01:40:57.671Z,9.70
2023-05-15T01:43:28.462Z,9.48
2023-05-15T01:45:57.266Z,9.35
2023-05-15T01:48:26.493Z,9.25
2023-05-15T01:51:01.850Z,9.05
2023-05-15T01:53:33.670Z,9.23
2023-05-15T01:56:02.948Z,9.23
2023-05-15T01:58:31.069Z,9.05
2023-05-15T02:01:00.074Z,8.50
2023-05-15T02:03:28.221Z,9.15
2023-05-15T02:05:56.663Z,8.70
2023-05-15T02:08:28.870Z,8.75
2023-05-15T02:10:58.549Z,8.35
2023-05-15T02:13:26.595Z,9.10
2023-05-15T02:15:54.121Z,8.60
2023-05-15T02:18:21.954Z,9.55
2023-05-15T02:20:49.756Z,8.52
2023-05-15T02:23:17.297Z,8.90
2023-05-15T02:26:01.398Z,9.32
2023-05-15T02:28:36.562Z,8.68
2023-05-15T02:31:14.586Z,8.68
2023-05-15T02:34:01.244Z,8.35
2023-05-15T02:36:33.916Z,8.82
2023-05-15T02:39:01.907Z,9.98
2023-05-15T02:41:31.703Z,10.70
2023-05-15T02:44:00.324Z,10.65
2023-05-15T02:46:28.511Z,10.63
2023-05-15T02:48:56.236Z,10.02
2023-05-15T02:51:23.880Z,10.43
2023-05-15T02:53:52.175Z,10.07
2023-05-15T02:56:19.673Z,10.32
2023-05-15T02:58:47.059Z,10.32
2023-05-15T03:01:14.820Z,10.60
2023-05-15T03:03:42.198Z,10.45
2023-05-15T03:06:09.696Z,10.27
2023-05-15T03:08:37.520Z,10.45
2023-05-15T03:11:05.486Z,9.43
2023-05-15T03:13:32.975Z,10.82
2023-05-15T03:16:01.051Z,10.30
2023-05-15T03:18:28.474Z,10.57
2023-05-15T03:20:55.943Z,10.63
2023-05-15T03:23:23.603Z,10.80
2023-05-15T03:25:51.072Z,10.25
2023-05-15T03:28:18.561Z,9.88
2023-05-15T03:30:46.224Z,10.15
2023-05-15T03:33:13.607Z,10.98
2023-05-15T03:35:41.006Z,11.20
2023-05-15T03:38:08.647Z,10.93
2023-05-15T03:40:38.797Z,11.60
2023-05-15T03:43:06.777Z,11.00
2023-05-15T03:45:35.261Z,11.32
2023-05-15T03:48:02.743Z,11.35
2023-05-15T03:50:30.813Z,11.55
2023-05-15T03:53:00.149Z,11.93
2023-05-15T03:55:27.668Z,11.70
2023-05-15T03:57:55.199Z,11.63
2023-05-15T04:00:23.764Z,11.63
2023-05-15T04:02:51.780Z,11.90
2023-05-15T04:05:19.879Z,11.52
2023-05-15T04:07:47.590Z,12.27
2023-05-15T04:10:15.316Z,11.70
2023-05-15T04:12:42.687Z,11.00
2023-05-15T04:15:16.454Z,12.45
2023-05-15T04:17:48.128Z,12.30
2023-05-15T04:20:17.534Z,11.93
2023-05-15T04:22:45.665Z,12.77
2023-05-15T04:25:14.584Z,11.88
2023-05-15T04:27:43.567Z,13.07
2023-05-15T04:30:12.701Z,12.65
2023-05-15T04:32:40.761Z,11.98
2023-05-15T04:35:10.464Z,12.05
2023-05-15T04:37:41.931Z,13.00
2023-05-15T04:40:10.141Z,13.73
2023-05-15T04:42:39.572Z,13.52
2023-05-15T04:45:08.178Z,12.48
2023-05-15T04:47:35.904Z,13.35
2023-05-15T04:50:03.787Z,14.13
2023-05-15T04:52:32.330Z,12.70
2023-05-15T04:54:59.843Z,14.35
2023-05-15T04:57:27.853Z,14.20
2023-05-15T04:59:55.290Z,14.00
2023-05-15T05:02:23.045Z,15.60
2023-05-15T05:04:51.080Z,14.80
2023-05-15T05:07:18.695Z,15.20
2023-05-15T05:09:46.297Z,15.68
2023-05-15T05:12:14.642Z,15.48
2023-05-15T05:14:42.295Z,15.48
2023-05-15T05:17:09.956Z,15.70
2023-05-15T05:19:37.629Z,16.25
2023-05-15T05:22:05.736Z,14.77
2023-05-15T05:24:35.400Z,16.35
2023-05-15T05:27:04.042Z,16.23
2023-05-15T05:29:31.604Z,16.87
2023-05-15T05:31:59.196Z,14.48
2023-05-15T05:34:27.009Z,16.42
2023-05-15T05:36:54.573Z,15.35
2023-05-15T05:39:22.082Z,14.27
2023-05-15T05:41:49.799Z,13.45
2023-05-15T05:44:17.214Z,13.82
2023-05-15T05:46:45.574Z,12.10
2023-05-15T05:49:13.448Z,12.48
2023-05-15T05:51:40.840Z,13.52
2023-05-15T05:54:08.273Z,12.52
2023-05-15T05:56:36.299Z,11.45
2023-05-15T05:59:03.825Z,11.50
2023-05-15T06:01:31.376Z,12.02
2023-05-15T06:03:59.249Z,12.37
2023-05-15T06:06:26.723Z,11.35
2023-05-15T06:08:56.326Z,11.07
2023-05-15T06:11:25.583Z,8.35
2023-05-15T06:13:53.186Z,8.60
2023-05-15T06:16:21.757Z,8.80
2023-05-15T06:18:49.557Z,7.82
2023-05-15T06:21:16.987Z,8.80
2023-05-15T06:23:44.397Z,8.05
2023-05-15T06:26:12.224Z,7.65
2023-05-15T06:28:39.646Z,7.95
2023-05-15T06:31:07.101Z,7.78
2023-05-15T06:33:34.911Z,7.93
2023-05-15T06:36:02.338Z,7.50
2023-05-15T06:38:29.774Z,6.82
2023-05-15T06:40:57.412Z,7.65
2023-05-15T06:43:24.759Z,7.62
2023-05-15T06:45:52.195Z,7.72
2023-05-15T06:48:19.888Z,7.30
2023-05-15T06:50:47.364Z,8.73
2023-05-15T06:53:14.983Z,6.97
2023-05-15T06:55:42.665Z,7.00
2023-05-15T06:58:10.080Z,7.00
2023-05-15T07:00:37.451Z,7.50
2023-05-15T07:03:05.225Z,8.07
2023-05-15T07:05:32.893Z,8.00
2023-05-15T07:08:00.567Z,8.57
2023-05-15T07:10:28.465Z,8.00
2023-05-15T07:12:56.054Z,8.30
2023-05-15T07:15:23.748Z,7.30
2023-05-15T07:17:51.738Z,7.12
2023-05-15T07:20:19.308Z,7.75
2023-05-15T07:22:55.716Z,7.25
2023-05-15T07:25:25.375Z,6.62
2023-05-15T07:27:53.347Z,6.62
2023-05-15T07:30:21.000Z,6.28
2023-05-15T07:32:48.968Z,6.97
2023-05-15T07:35:16.748Z,6.95
2023-05-15T07:37:44.198Z,7.05
2023-05-15T07:40:12.412Z,7.62
2023-05-15T07:42:39.866Z,6.93
2023-05-15T07:45:07.932Z,6.72
2023-05-15T07:47:36.227Z,6.18
2023-05-15T07:50:03.892Z,5.60
2023-05-15T07:52:31.576Z,4.90
2023-05-15T07:54:59.267Z,4.60
2023-05-15T07:57:26.726Z,4.70
2023-05-15T07:59:54.104Z,4.65
2023-05-15T08:02:21.988Z,4.18
2023-05-15T08:04:49.883Z,4.40
2023-05-15T08:07:17.263Z,3.83
2023-05-15T08:09:44.619Z,4.43
2023-05-15T08:12:21.250Z,4.80
2023-05-15T08:14:53.790Z,5.00
2023-05-15T08:17:22.283Z,4.45
2023-05-15T08:19:49.998Z,4.57
2023-05-15T08:22:17.640Z,4.90
2023-05-15T08:24:45.421Z,4.43
2023-05-15T08:27:12.841Z,4.47
2023-05-15T08:29:40.403Z,3.80
2023-05-15T08:32:08.932Z,3.50
2023-05-15T08:34:36.790Z,3.50
2023-05-15T08:37:04.971Z,3.70
2023-05-15T08:39:32.877Z,3.42
2023-05-15T08:42:09.267Z,3.12
2023-05-15T08:44:37.496Z,2.90
2023-05-15T08:47:06.125Z,3.25
2023-05-15T08:49:55.242Z,3.50
2023-05-15T08:52:23.487Z,2.62
2023-05-15T08:54:51.215Z,3.10
2023-05-15T08:57:18.815Z,3.15
2023-05-15T08:59:46.655Z,2.85
2023-05-15T09:02:15.659Z,3.30
2023-05-15T09:04:43.081Z,2.95
2023-05-15T09:07:11.710Z,2.87
2023-05-15T09:09:39.496Z,3.03
2023-05-15T09:12:09.630Z,3.15
2023-05-15T09:14:37.350Z,3.00
2023-05-15T09:17:05.064Z,2.90
2023-05-15T09:19:34.710Z,2.62
2023-05-15T09:22:18.110Z,2.58
2023-05-15T09:24:48.149Z,3.03
2023-05-15T09:27:16.072Z,2.97
2023-05-15T09:29:43.755Z,3.45
2023-05-15T09:32:13.002Z,3.37
2023-05-15T09:34:42.729Z,3.12
2023-05-15T09:37:13.258Z,2.85
2023-05-15T09:39:45.023Z,2.33
2023-05-15T09:42:16.092Z,2.37
2023-05-15T09:44:44.492Z,1.93
2023-05-15T09:47:13.738Z,2.03
2023-05-15T09:49:44.167Z,2.22
2023-05-15T09:52:11.867Z,2.00
2023-05-15T09:54:39.974Z,1.50
2023-05-15T09:57:12.275Z,1.40
2023-05-15T09:59:45.405Z,1.40
2023-05-15T10:02:40.431Z,1.48
2023-05-15T10:05:08.630Z,1.58
2023-05-15T10:07:36.515Z,1.30
2023-05-15T10:10:05.000Z,0.98
2023-05-15T10:12:36.565Z,1.05
2023-05-15T10:15:04.556Z,0.98
2023-05-15T10:17:35.742Z,1.27
2023-05-15T10:20:07.037Z,1.87
2023-05-15T10:22:38.602Z,1.23
2023-05-15T10:25:10.811Z,1.37
2023-05-15T10:27:38.919Z,1.62
2023-05-15T10:30:07.956Z,1.90
2023-05-15T10:32:35.938Z,1.35
2023-05-15T10:35:09.605Z,1.52
2023-05-15T10:37:40.863Z,1.62
2023-05-15T10:40:11.458Z,1.48
2023-05-15T10:42:41.784Z,1.33
2023-05-15T10:45:10.037Z,1.40
2023-05-15T10:47:39.345Z,1.40
2023-05-15T10:50:07.658Z,1.30
2023-05-15T10:52:38.767Z,1.40
2023-05-15T10:55:13.683Z,1.60
2023-05-15T10:57:41.511Z,1.90
2023-05-15T11:00:31.477Z,1.58
2023-05-15T11:03:01.064Z,1.33
2023-05-15T11:05:31.047Z,1.60
2023-05-15T11:08:21.627Z,1.70
2023-05-15T11:10:49.147Z,1.75
2023-05-15T11:13:16.911Z,1.80
2023-05-15T11:15:45.965Z,1.55
2023-05-15T11:18:14.189Z,1.60
2023-05-15T11:20:42.665Z,1.70
2023-05-15T11:23:10.290Z,1.70
2023-05-15T11:25:37.795Z,1.60
2023-05-15T11:28:05.731Z,1.58
2023-05-15T11:30:39.808Z,1.75
2023-05-15T11:33:10.535Z,1.33
2023-05-15T11:35:48.216Z,1.23
2023-05-15T11:38:17.908Z,1.95
2023-05-15T11:40:49.734Z,1.25
2023-05-15T11:45:58.149Z,1.20
2023-05-15T11:48:31.466Z,1.40
2023-05-15T11:50:58.972Z,1.80
2023-05-15T11:53:27.235Z,1.10
2023-05-15T11:55:54.798Z,1.17
2023-05-15T11:58:23.769Z,1.20
2023-05-15T12:00:52.674Z,1.00
2023-05-15T12:03:26.002Z,1.08
2023-05-15T12:08:24.700Z,0.93
2023-05-15T12:10:52.107Z,1.00
2023-05-15T12:13:19.590Z,1.10
2023-05-15T12:15:47.510Z,1.05
2023-05-15T12:18:14.970Z,1.08
2023-05-15T12:20:46.747Z,1.10
2023-05-15T12:25:43.651Z,1.10
2023-05-15T12:28:11.873Z,1.10
2023-05-15T12:30:39.974Z,0.80
2023-05-15T12:33:09.077Z,1.23
2023-05-15T12:35:41.185Z,0.65
2023-05-15T12:40:37.083Z,0.73
2023-05-15T12:43:06.577Z,0.82
2023-05-15T12:45:36.382Z,1.00
2023-05-15T12:48:04.270Z,1.33
2023-05-15T12:50:33.242Z,0.62
2023-05-15T12:53:03.387Z,0.60
2023-05-15T12:55:34.405Z,0.80
2023-05-15T12:58:07.032Z,0.70
2023-05-15T13:00:35.761Z,0.65
2023-05-15T13:03:04.429Z,0.68
2023-05-15T13:05:33.563Z,0.70
2023-05-15T13:08:02.738Z,0.80
2023-05-15T13:10:33.363Z,0.70
2023-05-15T13:13:00.812Z,0.80
2023-05-15T13:15:33.332Z,0.65
2023-05-15T13:18:01.649Z,0.80
2023-05-15T13:20:40.231Z,0.80
2023-05-15T13:23:09.225Z,0.43
2023-05-15T13:25:37.087Z,0.60
2023-05-15T13:28:06.028Z,0.70
2023-05-15T13:30:34.419Z,0.90
2023-05-15T13:33:02.488Z,0.75
2023-05-15T13:35:29.977Z,0.88
2023-05-15T13:37:57.797Z,0.55
2023-05-15T13:40:26.205Z,0.50
2023-05-15T13:42:53.886Z,0.80
2023-05-15T13:45:21.596Z,0.62
2023-05-15T13:47:49.041Z,0.68
2023-05-15T13:50:16.736Z,0.60
2023-05-15T13:52:45.285Z,0.70
2023-05-15T13:55:12.719Z,0.80
2023-05-15T13:57:41.796Z,0.90
2023-05-15T14:00:13.840Z,0.73
2023-05-15T14:02:43.206Z,0.80
2023-05-15T14:05:12.279Z,0.85
2023-05-15T14:07:40.315Z,0.50
2023-05-15T14:10:08.458Z,0.60
2023-05-15T14:12:37.075Z,0.90
2023-05-15T14:15:04.925Z,0.62
2023-05-15T14:17:33.054Z,0.60
2023-05-15T14:20:00.510Z,0.55
2023-05-15T14:22:27.969Z,0.80
2023-05-15T14:24:55.705Z,0.70
2023-05-15T14:27:23.130Z,0.60
2023-05-15T14:29:51.332Z,0.50
2023-05-15T14:32:19.107Z,0.70
2023-05-15T14:34:46.614Z,0.70
2023-05-15T14:37:14.176Z,0.60
2023-05-15T14:39:42.335Z,0.60
2023-05-15T14:42:10.672Z,0.80
2023-05-15T14:44:38.125Z,0.60
2023-05-15T14:47:06.943Z,1.10
2023-05-15T14:49:35.120Z,0.85
2023-05-15T14:52:04.267Z,0.68
2023-05-15T14:54:32.133Z,0.80
2023-05-15T14:56:59.643Z,0.90
2023-05-15T14:59:28.139Z,0.80
2023-05-15T15:01:56.203Z,0.77
2023-05-15T15:04:23.708Z,0.77
2023-05-15T15:06:51.101Z,0.73
2023-05-15T15:09:21.268Z,0.55
2023-05-15T15:11:49.139Z,0.70
2023-05-15T15:14:16.520Z,0.60
2023-05-15T15:16:45.936Z,0.70
2023-05-15T15:19:13.933Z,0.80
2023-05-15T15:21:41.460Z,0.60
2023-05-15T15:24:09.472Z,1.12
2023-05-15T15:26:36.973Z,0.80
2023-05-15T15:29:04.352Z,0.93
2023-05-15T15:31:32.160Z,1.02
2023-05-15T15:33:59.740Z,0.82
2023-05-15T15:36:27.953Z,0.82
2023-05-15T15:38:55.630Z,0.95
2023-05-15T15:41:23.538Z,0.85
2023-05-15T15:43:51.039Z,1.30
2023-05-15T15:46:18.836Z,1.08
2023-05-15T15:48:46.396Z,1.10
2023-05-15T15:51:13.806Z,1.00
2023-05-15T15:53:41.609Z,1.00
2023-05-15T15:56:09.033Z,0.90
2023-05-15T15:58:36.435Z,1.10
2023-05-15T16:01:04.541Z,1.05
2023-05-15T16:03:32.365Z,1.10
2023-05-15T16:06:00.440Z,0.80
2023-05-15T16:08:28.067Z,0.90
2023-05-15T16:10:55.890Z,0.90
2023-05-15T16:13:23.238Z,0.80
2023-05-15T16:15:50.719Z,1.10
2023-05-15T16:18:18.447Z,1.08
2023-05-15T16:20:47.685Z,0.90
2023-05-15T16:23:16.253Z,1.02
2023-05-15T16:25:44.892Z,0.77
2023-05-15T16:28:12.371Z,0.80
2023-05-15T16:30:48.931Z,0.85
2023-05-15T16:33:18.290Z,0.95
2023-05-15T16:35:46.625Z,0.80
2023-05-15T16:38:14.723Z,0.80
2023-05-15T16:40:42.501Z,0.93
2023-05-15T16:43:10.223Z,0.90
2023-05-15T16:45:37.659Z,0.50
2023-05-15T16:48:05.784Z,0.75
2023-05-15T16:50:36.071Z,0.80
2023-05-15T16:53:04.864Z,0.57
2023-05-15T16:55:33.034Z,0.77
2023-05-15T16:58:00.750Z,0.60
2023-05-15T17:00:28.470Z,0.70
2023-05-15T17:02:56.688Z,0.80
2023-05-15T17:05:24.159Z,0.68
2023-05-15T17:07:51.652Z,0.50
2023-05-15T17:10:19.403Z,0.50
2023-05-15T17:12:46.746Z,0.30
2023-05-15T17:15:14.221Z,0.35
2023-05-15T17:17:41.967Z,0.50
2023-05-15T17:20:10.092Z,0.30
2023-05-15T17:22:37.727Z,0.50
2023-05-15T17:25:07.060Z,0.55
2023-05-15T17:27:41.163Z,0.55
2023-05-15T17:30:10.601Z,0.50
2023-05-15T17:32:38.757Z,0.50
2023-05-15T17:35:08.082Z,0.50
2023-05-15T17:37:35.894Z,0.50
2023-05-15T17:40:03.672Z,0.40
2023-05-15T17:42:31.428Z,0.68
2023-05-15T17:44:59.613Z,0.40
2023-05-15T17:47:27.285Z,0.57
2023-05-15T17:49:55.477Z,0.60
2023-05-15T17:52:23.227Z,0.32
2023-05-15T17:54:50.800Z,0.50
2023-05-15T17:57:18.258Z,0.68
2023-05-15T17:59:45.945Z,0.60
2023-05-15T18:02:13.320Z,0.80
2023-05-15T18:04:40.951Z,1.20
2023-05-15T18:07:08.547Z,1.17
2023-05-15T18:09:35.908Z,1.08
2023-05-15T18:12:03.816Z,1.10
2023-05-15T18:14:31.423Z,1.20
2023-05-15T18:16:58.787Z,1.50
2023-05-15T18:19:26.512Z,1.70
2023-05-15T18:21:54.004Z,1.45
2023-05-15T18:24:21.671Z,1.42
2023-05-15T18:26:55.435Z,1.25
2023-05-15T18:29:23.329Z,1.10
2023-05-15T18:31:51.346Z,1.05
2023-05-15T18:34:19.148Z,1.10
2023-05-15T18:36:46.604Z,1.70
2023-05-15T18:39:15.664Z,1.77
2023-05-15T18:41:43.724Z,1.20
2023-05-15T18:44:11.221Z,1.05
2023-05-15T18:46:38.972Z,1.25
2023-05-15T18:49:06.536Z,1.33
2023-05-15T18:51:34.950Z,1.60
2023-05-15T18:54:02.705Z,2.00
2023-05-15T18:56:30.138Z,2.10
2023-05-15T18:58:57.522Z,1.90
2023-05-15T19:01:25.365Z,1.62
2023-05-15T19:03:52.851Z,1.40
2023-05-15T19:06:20.498Z,1.85
2023-05-15T19:08:48.711Z,2.60
2023-05-15T19:11:16.690Z,2.20
2023-05-15T19:13:44.183Z,1.90
2023-05-15T19:16:12.393Z,1.70
2023-05-15T19:18:40.064Z,1.70
2023-05-15T19:21:07.652Z,1.83
2023-05-15T19:23:35.804Z,2.00
2023-05-15T19:26:03.348Z,1.75
2023-05-15T19:28:30.754Z,2.12
2023-05-15T19:30:58.619Z,2.30
2023-05-15T19:33:26.051Z,2.40
2023-05-15T19:35:53.552Z,2.15
2023-05-15T19:38:21.805Z,2.55
2023-05-15T19:40:49.278Z,2.28
2023-05-15T19:43:16.761Z,2.58
2023-05-15T19:45:44.513Z,2.35
2023-05-15T19:48:13.133Z,1.90
2023-05-15T19:50:40.844Z,1.50
2023-05-15T19:53:08.559Z,1.10
2023-05-15T19:55:36.111Z,0.93
2023-05-15T19:58:04.069Z,0.93
2023-05-15T20:00:32.815Z,0.90
2023-05-15T20:03:01.041Z,0.93
2023-05-15T20:05:28.701Z,0.80
2023-05-15T20:07:56.152Z,1.50
2023-05-15T20:10:24.294Z,1.85
2023-05-15T20:12:52.171Z,1.45
2023-05-15T20:15:19.627Z,2.12
2023-05-15T20:17:47.455Z,3.22
2023-05-15T20:20:15.142Z,4.15
2023-05-15T20:22:44.132Z,3.33
2023-05-15T20:25:11.906Z,2.12
2023-05-15T20:27:39.496Z,1.27
2023-05-15T20:30:07.943Z,1.37
2023-05-15T20:32:36.206Z,0.98
2023-05-15T20:35:04.045Z,0.80
2023-05-15T20:37:31.970Z,1.60
2023-05-15T20:40:00.179Z,4.07
2023-05-15T20:42:28.388Z,6.40
2023-05-15T20:44:55.845Z,8.63
2023-05-15T20:47:23.751Z,8.25
2023-05-15T20:49:51.224Z,6.43
2023-05-15T20:52:19.018Z,4.45
2023-05-15T20:54:46.741Z,3.15
2023-05-15T20:57:14.147Z,2.00
2023-05-15T20:59:41.715Z,0.95
2023-05-15T21:02:09.379Z,0.60
2023-05-15T21:04:37.194Z,0.60
2023-05-15T21:07:04.895Z,0.70
2023-05-15T21:09:33.313Z,0.88
2023-05-15T21:12:00.751Z,0.70
2023-05-15T21:14:28.172Z,0.88
2023-05-15T21:16:55.908Z,0.60
2023-05-15T21:19:23.383Z,0.80
2023-05-15T21:21:50.886Z,0.90
2023-05-15T21:24:18.871Z,0.90
2023-05-15T21:26:46.844Z,0.80
2023-05-15T21:29:14.309Z,0.80
2023-05-15T21:31:42.165Z,0.80
2023-05-15T21:34:09.636Z,0.82
2023-05-15T21:36:37.123Z,1.10
2023-05-15T21:39:04.876Z,0.70
2023-05-15T21:41:32.659Z,0.82
2023-05-15T21:44:00.072Z,1.05
2023-05-15T21:46:27.790Z,1.35
2023-05-15T21:48:55.441Z,0.80
2023-05-15T21:51:22.843Z,0.80
2023-05-15T21:53:50.544Z,1.02
2023-05-15T21:56:18.101Z,1.10
2023-05-15T21:58:45.754Z,0.90
2023-05-15T22:01:14.971Z,0.98
2023-05-15T22:03:42.837Z,1.30
2023-05-15T22:06:10.670Z,0.93
2023-05-15T22:08:38.293Z,1.23
2023-05-15T22:11:06.762Z,1.35
2023-05-15T22:13:34.343Z,1.35
2023-05-15T22:16:01.849Z,1.55
2023-05-15T22:18:29.582Z,1.20
2023-05-15T22:20:57.480Z,1.30
2023-05-15T22:23:24.884Z,1.33
2023-05-15T22:25:52.618Z,1.30
2023-05-15T22:28:20.030Z,1.45
2023-05-15T22:30:47.425Z,1.40
2023-05-15T22:33:15.455Z,1.10
2023-05-15T22:35:42.830Z,1.37
2023-05-15T22:38:10.260Z,1.20
2023-05-15T22:40:37.902Z,1.12
2023-05-15T22:43:05.265Z,0.93
2023-05-15T22:45:32.682Z,1.00
2023-05-15T22:48:01.780Z,1.23
2023-05-15T22:50:29.304Z,1.27
2023-05-15T22:52:57.034Z,1.02
2023-05-15T22:55:24.814Z,1.12
2023-05-15T22:57:52.540Z,1.00
2023-05-15T23:00:20.081Z,1.00
2023-05-15T23:02:47.815Z,1.10
2023-05-15T23:05:15.226Z,1.50
2023-05-15T23:07:42.655Z,1.12
2023-05-15T23:10:10.663Z,1.40
2023-05-15T23:12:38.069Z,1.10
2023-05-15T23:15:05.909Z,1.20
2023-05-15T23:17:33.669Z,1.20
2023-05-15T23:20:01.069Z,1.30
2023-05-15T23:22:28.435Z,1.33
2023-05-15T23:24:56.122Z,1.50
2023-05-15T23:27:23.562Z,1.40
2023-05-15T23:29:50.959Z,1.30
2023-05-15T23:32:18.660Z,1.65
2023-05-15T23:34:46.416Z,1.60
2023-05-15T23:37:14.155Z,1.40
2023-05-15T23:39:41.806Z,1.55
2023-05-15T23:42:12.384Z,1.40
2023-05-15T23:44:39.862Z,1.62
2023-05-15T23:47:08.167Z,1.70
2023-05-15T23:49:35.792Z,1.35
2023-05-15T23:52:03.341Z,1.60
2023-05-15T23:54:31.076Z,2.03
2023-05-15T23:56:58.485Z,1.40
2023-05-15T23:59:25.936Z,1.30
